sensor_id;sensor_type;location;lat;lon;timestamp;P1;durP1;ratioP1;P2;durP2;ratioP2
6955;SDS011;50345;51.136;16.886;2023-12-20T00:00:21;10.03;;;9.07;;
6955;SDS011;50345;51.136;16.886;2023-12-20T00:02:46;8.10;;;7.20;;
6955;SDS011;50345;51.136;16.886;2023-12-20T00:05:13;11.73;;;8.35;;
6955;SDS011;50345;51.136;16.886;2023-12-20T00:07:39;9.27;;;7.60;;
6955;SDS011;50345;51.136;16.886;2023-12-20T00:10:05;8.13;;;7.33;;
6955;SDS011;50345;51.136;16.886;2023-12-20T00:12:31;8.52;;;7.32;;
6955;SDS011;50345;51.136;16.886;2023-12-20T00:14:56;8.07;;;7.30;;
6955;SDS011;50345;51.136;16.886;2023-12-20T00:17:22;11.43;;;8.17;;
6955;SDS011;50345;51.136;16.886;2023-12-20T00:19:48;11.50;;;9.30;;
6955;SDS011;50345;51.136;16.886;2023-12-20T00:22:13;10.03;;;8.10;;
6955;SDS011;50345;51.136;16.886;2023-12-20T00:24:39;10.43;;;8.70;;
6955;SDS011;50345;51.136;16.886;2023-12-20T00:27:04;11.57;;;8.50;;
6955;SDS011;50345;51.136;16.886;2023-12-20T00:29:30;16.97;;;10.40;;
6955;SDS011;50345;51.136;16.886;2023-12-20T00:31:55;9.77;;;8.87;;
6955;SDS011;50345;51.136;16.886;2023-12-20T00:34:21;20.40;;;13.57;;
6955;SDS011;50345;51.136;16.886;2023-12-20T00:36:46;13.90;;;11.37;;
6955;SDS011;50345;51.136;16.886;2023-12-20T00:39:12;12.67;;;8.33;;
6955;SDS011;50345;51.136;16.886;2023-12-20T00:41:37;13.77;;;11.73;;
6955;SDS011;50345;51.136;16.886;2023-12-20T00:44:03;20.37;;;16.47;;
6955;SDS011;50345;51.136;16.886;2023-12-20T00:46:29;17.43;;;12.10;;
6955;SDS011;50345;51.136;16.886;2023-12-20T00:48:54;14.77;;;11.53;;
6955;SDS011;50345;51.136;16.886;2023-12-20T00:51:20;19.13;;;13.80;;
6955;SDS011;50345;51.136;16.886;2023-12-20T00:53:47;16.92;;;13.60;;
6955;SDS011;50345;51.136;16.886;2023-12-20T00:56:15;16.27;;;12.00;;
6955;SDS011;50345;51.136;16.886;2023-12-20T00:58:41;14.70;;;11.80;;
6955;SDS011;50345;51.136;16.886;2023-12-20T01:01:06;16.80;;;12.60;;
6955;SDS011;50345;51.136;16.886;2023-12-20T01:03:32;36.17;;;23.87;;
6955;SDS011;50345;51.136;16.886;2023-12-20T01:05:57;17.40;;;14.83;;
6955;SDS011;50345;51.136;16.886;2023-12-20T01:08:23;14.00;;;12.60;;
6955;SDS011;50345;51.136;16.886;2023-12-20T01:10:48;16.67;;;13.37;;
6955;SDS011;50345;51.136;16.886;2023-12-20T01:13:14;16.07;;;14.37;;
6955;SDS011;50345;51.136;16.886;2023-12-20T01:15:39;28.37;;;24.67;;
6955;SDS011;50345;51.136;16.886;2023-12-20T01:18:05;18.40;;;16.00;;
6955;SDS011;50345;51.136;16.886;2023-12-20T01:20:31;27.00;;;19.00;;
6955;SDS011;50345;51.136;16.886;2023-12-20T01:22:56;16.57;;;13.27;;
6955;SDS011;50345;51.136;16.886;2023-12-20T01:25:22;22.00;;;18.87;;
6955;SDS011;50345;51.136;16.886;2023-12-20T01:27:47;26.20;;;17.93;;
6955;SDS011;50345;51.136;16.886;2023-12-20T01:30:13;11.00;;;9.90;;
6955;SDS011;50345;51.136;16.886;2023-12-20T01:32:39;7.95;;;7.15;;
6955;SDS011;50345;51.136;16.886;2023-12-20T01:35:05;5.50;;;4.97;;
6955;SDS011;50345;51.136;16.886;2023-12-20T01:37:31;4.00;;;3.60;;
6955;SDS011;50345;51.136;16.886;2023-12-20T01:39:57;3.77;;;3.47;;
6955;SDS011;50345;51.136;16.886;2023-12-20T01:42:23;4.15;;;3.85;;
6955;SDS011;50345;51.136;16.886;2023-12-20T01:44:49;4.30;;;3.40;;
6955;SDS011;50345;51.136;16.886;2023-12-20T01:47:14;4.80;;;4.20;;
6955;SDS011;50345;51.136;16.886;2023-12-20T01:49:40;5.23;;;3.90;;
6955;SDS011;50345;51.136;16.886;2023-12-20T01:52:06;5.33;;;4.83;;
6955;SDS011;50345;51.136;16.886;2023-12-20T01:54:33;3.80;;;3.47;;
6955;SDS011;50345;51.136;16.886;2023-12-20T01:57:00;4.30;;;3.90;;
6955;SDS011;50345;51.136;16.886;2023-12-20T01:59:26;3.25;;;2.95;;
6955;SDS011;50345;51.136;16.886;2023-12-20T02:01:53;4.18;;;3.58;;
6955;SDS011;50345;51.136;16.886;2023-12-20T02:04:19;3.67;;;3.37;;
6955;SDS011;50345;51.136;16.886;2023-12-20T02:06:45;3.00;;;2.63;;
6955;SDS011;50345;51.136;16.886;2023-12-20T02:09:12;2.90;;;2.60;;
6955;SDS011;50345;51.136;16.886;2023-12-20T02:11:37;2.97;;;2.67;;
6955;SDS011;50345;51.136;16.886;2023-12-20T02:14:03;3.10;;;2.80;;
6955;SDS011;50345;51.136;16.886;2023-12-20T02:16:29;2.97;;;2.75;;
6955;SDS011;50345;51.136;16.886;2023-12-20T02:18:55;2.47;;;2.27;;
6955;SDS011;50345;51.136;16.886;2023-12-20T02:21:33;2.80;;;2.60;;
6955;SDS011;50345;51.136;16.886;2023-12-20T02:24:02;3.05;;;2.85;;
6955;SDS011;50345;51.136;16.886;2023-12-20T02:26:27;3.50;;;2.87;;
6955;SDS011;50345;51.136;16.886;2023-12-20T02:28:53;3.92;;;3.63;;
6955;SDS011;50345;51.136;16.886;2023-12-20T02:31:23;3.17;;;2.88;;
6955;SDS011;50345;51.136;16.886;2023-12-20T02:33:48;2.47;;;2.28;;
6955;SDS011;50345;51.136;16.886;2023-12-20T02:36:14;3.20;;;2.80;;
6955;SDS011;50345;51.136;16.886;2023-12-20T02:38:40;2.93;;;2.73;;
6955;SDS011;50345;51.136;16.886;2023-12-20T02:41:05;4.33;;;2.80;;
6955;SDS011;50345;51.136;16.886;2023-12-20T02:43:31;2.90;;;2.40;;
6955;SDS011;50345;51.136;16.886;2023-12-20T02:45:56;2.50;;;2.30;;
6955;SDS011;50345;51.136;16.886;2023-12-20T02:48:22;3.13;;;2.83;;
6955;SDS011;50345;51.136;16.886;2023-12-20T02:50:48;3.28;;;2.97;;
6955;SDS011;50345;51.136;16.886;2023-12-20T02:53:14;2.80;;;2.50;;
6955;SDS011;50345;51.136;16.886;2023-12-20T02:55:40;2.93;;;2.60;;
6955;SDS011;50345;51.136;16.886;2023-12-20T02:58:05;2.50;;;2.10;;
6955;SDS011;50345;51.136;16.886;2023-12-20T03:00:31;4.37;;;3.47;;
6955;SDS011;50345;51.136;16.886;2023-12-20T03:02:56;3.00;;;2.80;;
6955;SDS011;50345;51.136;16.886;2023-12-20T03:05:24;3.63;;;3.33;;
6955;SDS011;50345;51.136;16.886;2023-12-20T03:07:50;3.20;;;3.00;;
6955;SDS011;50345;51.136;16.886;2023-12-20T03:10:15;3.60;;;3.30;;
6955;SDS011;50345;51.136;16.886;2023-12-20T03:12:41;2.73;;;2.50;;
6955;SDS011;50345;51.136;16.886;2023-12-20T03:15:06;7.40;;;2.90;;
6955;SDS011;50345;51.136;16.886;2023-12-20T03:17:32;3.78;;;2.25;;
6955;SDS011;50345;51.136;16.886;2023-12-20T03:19:58;2.40;;;2.20;;
6955;SDS011;50345;51.136;16.886;2023-12-20T03:22:23;2.17;;;1.97;;
6955;SDS011;50345;51.136;16.886;2023-12-20T03:24:49;2.97;;;2.10;;
6955;SDS011;50345;51.136;16.886;2023-12-20T03:27:14;2.37;;;2.00;;
6955;SDS011;50345;51.136;16.886;2023-12-20T03:29:40;1.70;;;1.60;;
6955;SDS011;50345;51.136;16.886;2023-12-20T03:32:05;1.73;;;1.50;;
6955;SDS011;50345;51.136;16.886;2023-12-20T03:34:31;1.50;;;1.40;;
6955;SDS011;50345;51.136;16.886;2023-12-20T03:36:57;1.37;;;1.17;;
6955;SDS011;50345;51.136;16.886;2023-12-20T03:39:22;1.30;;;1.20;;
6955;SDS011;50345;51.136;16.886;2023-12-20T03:41:48;1.10;;;1.00;;
6955;SDS011;50345;51.136;16.886;2023-12-20T03:44:13;1.00;;;1.00;;
6955;SDS011;50345;51.136;16.886;2023-12-20T03:46:39;1.77;;;1.67;;
6955;SDS011;50345;51.136;16.886;2023-12-20T03:49:04;1.30;;;1.20;;
6955;SDS011;50345;51.136;16.886;2023-12-20T03:51:30;1.10;;;1.02;;
6955;SDS011;50345;51.136;16.886;2023-12-20T03:53:56;1.30;;;1.20;;
6955;SDS011;50345;51.136;16.886;2023-12-20T03:56:21;1.10;;;1.00;;
6955;SDS011;50345;51.136;16.886;2023-12-20T03:58:47;1.53;;;1.43;;
6955;SDS011;50345;51.136;16.886;2023-12-20T04:01:12;1.30;;;1.20;;
6955;SDS011;50345;51.136;16.886;2023-12-20T04:03:38;1.00;;;1.00;;
6955;SDS011;50345;51.136;16.886;2023-12-20T04:06:05;1.40;;;1.30;;
6955;SDS011;50345;51.136;16.886;2023-12-20T04:08:31;1.20;;;0.90;;
6955;SDS011;50345;51.136;16.886;2023-12-20T04:10:56;1.30;;;1.20;;
6955;SDS011;50345;51.136;16.886;2023-12-20T04:13:22;1.20;;;0.93;;
6955;SDS011;50345;51.136;16.886;2023-12-20T04:15:47;1.37;;;1.27;;
6955;SDS011;50345;51.136;16.886;2023-12-20T04:18:15;1.52;;;1.42;;
6955;SDS011;50345;51.136;16.886;2023-12-20T04:20:40;5.13;;;1.63;;
6955;SDS011;50345;51.136;16.886;2023-12-20T04:23:06;1.50;;;1.40;;
6955;SDS011;50345;51.136;16.886;2023-12-20T04:25:31;1.97;;;1.83;;
6955;SDS011;50345;51.136;16.886;2023-12-20T04:27:57;1.87;;;1.77;;
6955;SDS011;50345;51.136;16.886;2023-12-20T04:30:23;3.17;;;1.37;;
6955;SDS011;50345;51.136;16.886;2023-12-20T04:32:48;1.47;;;1.37;;
6955;SDS011;50345;51.136;16.886;2023-12-20T04:35:14;1.20;;;1.10;;
6955;SDS011;50345;51.136;16.886;2023-12-20T04:37:39;2.30;;;2.10;;
6955;SDS011;50345;51.136;16.886;2023-12-20T04:40:05;1.60;;;1.40;;
6955;SDS011;50345;51.136;16.886;2023-12-20T04:42:31;3.83;;;2.00;;
6955;SDS011;50345;51.136;16.886;2023-12-20T04:44:56;1.73;;;1.63;;
6955;SDS011;50345;51.136;16.886;2023-12-20T04:47:22;2.43;;;2.20;;
6955;SDS011;50345;51.136;16.886;2023-12-20T04:49:47;2.40;;;1.83;;
6955;SDS011;50345;51.136;16.886;2023-12-20T04:52:13;1.97;;;1.70;;
6955;SDS011;50345;51.136;16.886;2023-12-20T04:54:39;1.80;;;1.30;;
6955;SDS011;50345;51.136;16.886;2023-12-20T04:57:05;1.60;;;1.50;;
6955;SDS011;50345;51.136;16.886;2023-12-20T04:59:30;1.63;;;1.30;;
6955;SDS011;50345;51.136;16.886;2023-12-20T05:01:56;4.27;;;3.83;;
6955;SDS011;50345;51.136;16.886;2023-12-20T05:04:22;2.67;;;2.15;;
6955;SDS011;50345;51.136;16.886;2023-12-20T05:06:48;2.70;;;2.50;;
6955;SDS011;50345;51.136;16.886;2023-12-20T05:09:15;1.35;;;1.10;;
6955;SDS011;50345;51.136;16.886;2023-12-20T05:11:40;1.30;;;1.20;;
6955;SDS011;50345;51.136;16.886;2023-12-20T05:14:06;1.70;;;1.27;;
6955;SDS011;50345;51.136;16.886;2023-12-20T05:16:32;1.50;;;1.40;;
6955;SDS011;50345;51.136;16.886;2023-12-20T05:18:57;2.40;;;1.53;;
6955;SDS011;50345;51.136;16.886;2023-12-20T05:21:25;2.30;;;1.38;;
6955;SDS011;50345;51.136;16.886;2023-12-20T05:23:51;1.60;;;1.10;;
6955;SDS011;50345;51.136;16.886;2023-12-20T05:26:16;4.60;;;1.67;;
6955;SDS011;50345;51.136;16.886;2023-12-20T05:28:42;1.23;;;1.13;;
6955;SDS011;50345;51.136;16.886;2023-12-20T05:31:08;1.60;;;1.43;;
6955;SDS011;50345;51.136;16.886;2023-12-20T05:33:34;1.75;;;1.60;;
6955;SDS011;50345;51.136;16.886;2023-12-20T05:35:59;3.50;;;3.17;;
6955;SDS011;50345;51.136;16.886;2023-12-20T05:38:25;3.90;;;3.27;;
6955;SDS011;50345;51.136;16.886;2023-12-20T05:40:51;1.50;;;1.40;;
6955;SDS011;50345;51.136;16.886;2023-12-20T05:43:16;1.90;;;1.80;;
6955;SDS011;50345;51.136;16.886;2023-12-20T05:45:42;6.53;;;2.47;;
6955;SDS011;50345;51.136;16.886;2023-12-20T05:48:07;3.73;;;3.43;;
6955;SDS011;50345;51.136;16.886;2023-12-20T05:50:33;6.80;;;3.77;;
6955;SDS011;50345;51.136;16.886;2023-12-20T05:53:00;6.90;;;4.05;;
6955;SDS011;50345;51.136;16.886;2023-12-20T05:55:25;2.80;;;2.60;;
6955;SDS011;50345;51.136;16.886;2023-12-20T05:57:51;5.03;;;3.10;;
6955;SDS011;50345;51.136;16.886;2023-12-20T06:00:16;6.87;;;3.20;;
6955;SDS011;50345;51.136;16.886;2023-12-20T06:02:42;6.82;;;6.38;;
6955;SDS011;50345;51.136;16.886;2023-12-20T06:05:08;6.00;;;3.97;;
6955;SDS011;50345;51.136;16.886;2023-12-20T06:07:34;3.90;;;3.60;;
6955;SDS011;50345;51.136;16.886;2023-12-20T06:09:59;6.03;;;4.80;;
6955;SDS011;50345;51.136;16.886;2023-12-20T06:12:25;3.73;;;3.43;;
6955;SDS011;50345;51.136;16.886;2023-12-20T06:14:52;4.00;;;3.70;;
6955;SDS011;50345;51.136;16.886;2023-12-20T06:17:18;2.40;;;2.30;;
6955;SDS011;50345;51.136;16.886;2023-12-20T06:19:43;1.77;;;1.67;;
6955;SDS011;50345;51.136;16.886;2023-12-20T06:22:10;2.08;;;1.98;;
6955;SDS011;50345;51.136;16.886;2023-12-20T06:24:35;2.30;;;1.90;;
6955;SDS011;50345;51.136;16.886;2023-12-20T06:27:01;1.63;;;1.53;;
6955;SDS011;50345;51.136;16.886;2023-12-20T06:29:27;1.70;;;1.53;;
6955;SDS011;50345;51.136;16.886;2023-12-20T06:31:53;1.50;;;1.40;;
6955;SDS011;50345;51.136;16.886;2023-12-20T06:34:19;2.23;;;1.97;;
6955;SDS011;50345;51.136;16.886;2023-12-20T06:36:44;2.10;;;2.00;;
6955;SDS011;50345;51.136;16.886;2023-12-20T06:39:10;3.37;;;3.07;;
6955;SDS011;50345;51.136;16.886;2023-12-20T06:41:37;2.40;;;2.00;;
6955;SDS011;50345;51.136;16.886;2023-12-20T06:44:03;3.95;;;3.58;;
6955;SDS011;50345;51.136;16.886;2023-12-20T06:46:29;3.70;;;3.40;;
6955;SDS011;50345;51.136;16.886;2023-12-20T06:48:54;3.33;;;2.73;;
6955;SDS011;50345;51.136;16.886;2023-12-20T06:51:20;2.20;;;2.10;;
6955;SDS011;50345;51.136;16.886;2023-12-20T06:53:45;2.23;;;2.13;;
6955;SDS011;50345;51.136;16.886;2023-12-20T06:56:11;2.13;;;2.03;;
6955;SDS011;50345;51.136;16.886;2023-12-20T06:58:37;2.28;;;1.77;;
6955;SDS011;50345;51.136;16.886;2023-12-20T07:01:03;2.53;;;2.43;;
6955;SDS011;50345;51.136;16.886;2023-12-20T07:03:29;2.35;;;2.17;;
6955;SDS011;50345;51.136;16.886;2023-12-20T07:05:55;3.50;;;3.30;;
6955;SDS011;50345;51.136;16.886;2023-12-20T07:08:20;3.27;;;3.07;;
6955;SDS011;50345;51.136;16.886;2023-12-20T07:10:46;3.53;;;3.23;;
6955;SDS011;50345;51.136;16.886;2023-12-20T07:13:11;3.73;;;3.43;;
6955;SDS011;50345;51.136;16.886;2023-12-20T07:15:37;4.00;;;3.60;;
6955;SDS011;50345;51.136;16.886;2023-12-20T07:18:03;2.53;;;2.33;;
6955;SDS011;50345;51.136;16.886;2023-12-20T07:20:29;2.40;;;2.30;;
6955;SDS011;50345;51.136;16.886;2023-12-20T07:22:55;3.00;;;2.80;;
6955;SDS011;50345;51.136;16.886;2023-12-20T07:25:20;2.53;;;2.40;;
6955;SDS011;50345;51.136;16.886;2023-12-20T07:27:46;3.13;;;2.93;;
6955;SDS011;50345;51.136;16.886;2023-12-20T07:30:12;3.00;;;2.80;;
6955;SDS011;50345;51.136;16.886;2023-12-20T07:32:37;4.73;;;2.87;;
6955;SDS011;50345;51.136;16.886;2023-12-20T07:35:03;2.10;;;1.93;;
6955;SDS011;50345;51.136;16.886;2023-12-20T07:37:30;3.65;;;3.35;;
6955;SDS011;50345;51.136;16.886;2023-12-20T07:39:56;3.20;;;3.00;;
6955;SDS011;50345;51.136;16.886;2023-12-20T07:42:21;2.80;;;2.60;;
6955;SDS011;50345;51.136;16.886;2023-12-20T07:44:47;2.50;;;2.30;;
6955;SDS011;50345;51.136;16.886;2023-12-20T07:47:13;1.80;;;1.70;;
6955;SDS011;50345;51.136;16.886;2023-12-20T07:49:42;4.28;;;3.65;;
6955;SDS011;50345;51.136;16.886;2023-12-20T07:52:07;2.70;;;2.50;;
6955;SDS011;50345;51.136;16.886;2023-12-20T07:54:33;2.53;;;2.30;;
6955;SDS011;50345;51.136;16.886;2023-12-20T07:56:59;2.13;;;2.03;;
6955;SDS011;50345;51.136;16.886;2023-12-20T07:59:24;2.83;;;2.37;;
6955;SDS011;50345;51.136;16.886;2023-12-20T08:01:50;2.57;;;2.33;;
6955;SDS011;50345;51.136;16.886;2023-12-20T08:04:15;1.53;;;1.43;;
6955;SDS011;50345;51.136;16.886;2023-12-20T08:06:41;3.10;;;2.73;;
6955;SDS011;50345;51.136;16.886;2023-12-20T08:09:06;2.93;;;2.10;;
6955;SDS011;50345;51.136;16.886;2023-12-20T08:11:32;1.37;;;1.20;;
6955;SDS011;50345;51.136;16.886;2023-12-20T08:13:57;2.97;;;1.90;;
6955;SDS011;50345;51.136;16.886;2023-12-20T08:16:23;5.10;;;3.03;;
6955;SDS011;50345;51.136;16.886;2023-12-20T08:18:50;3.10;;;1.90;;
6955;SDS011;50345;51.136;16.886;2023-12-20T08:21:15;3.38;;;3.05;;
6955;SDS011;50345;51.136;16.886;2023-12-20T08:23:41;7.33;;;6.60;;
6955;SDS011;50345;51.136;16.886;2023-12-20T08:26:07;2.60;;;2.13;;
6955;SDS011;50345;51.136;16.886;2023-12-20T08:28:33;4.45;;;2.17;;
6955;SDS011;50345;51.136;16.886;2023-12-20T08:31:00;5.68;;;3.65;;
6955;SDS011;50345;51.136;16.886;2023-12-20T08:33:25;3.67;;;3.20;;
6955;SDS011;50345;51.136;16.886;2023-12-20T08:35:51;1.57;;;1.43;;
6955;SDS011;50345;51.136;16.886;2023-12-20T08:38:16;1.90;;;1.03;;
6955;SDS011;50345;51.136;16.886;2023-12-20T08:40:42;2.70;;;1.17;;
6955;SDS011;50345;51.136;16.886;2023-12-20T08:43:08;1.42;;;1.33;;
6955;SDS011;50345;51.136;16.886;2023-12-20T08:45:34;3.60;;;1.80;;
6955;SDS011;50345;51.136;16.886;2023-12-20T08:48:00;3.60;;;2.97;;
6955;SDS011;50345;51.136;16.886;2023-12-20T08:50:26;4.07;;;1.60;;
6955;SDS011;50345;51.136;16.886;2023-12-20T08:52:51;2.30;;;1.77;;
6955;SDS011;50345;51.136;16.886;2023-12-20T08:55:17;4.20;;;3.10;;
6955;SDS011;50345;51.136;16.886;2023-12-20T08:57:43;7.22;;;3.55;;
6955;SDS011;50345;51.136;16.886;2023-12-20T09:00:09;6.77;;;5.10;;
6955;SDS011;50345;51.136;16.886;2023-12-20T09:02:35;4.72;;;1.60;;
6955;SDS011;50345;51.136;16.886;2023-12-20T09:05:02;2.58;;;2.38;;
6955;SDS011;50345;51.136;16.886;2023-12-20T09:07:28;1.50;;;1.40;;
6955;SDS011;50345;51.136;16.886;2023-12-20T09:09:56;3.80;;;2.67;;
6955;SDS011;50345;51.136;16.886;2023-12-20T09:12:22;1.58;;;1.48;;
6955;SDS011;50345;51.136;16.886;2023-12-20T09:14:48;3.20;;;2.17;;
6955;SDS011;50345;51.136;16.886;2023-12-20T09:17:15;2.63;;;1.73;;
6955;SDS011;50345;51.136;16.886;2023-12-20T09:19:42;3.22;;;1.73;;
6955;SDS011;50345;51.136;16.886;2023-12-20T09:22:11;2.08;;;1.58;;
6955;SDS011;50345;51.136;16.886;2023-12-20T09:24:37;6.30;;;2.03;;
6955;SDS011;50345;51.136;16.886;2023-12-20T09:27:03;2.40;;;2.20;;
6955;SDS011;50345;51.136;16.886;2023-12-20T09:29:30;3.17;;;1.55;;
6955;SDS011;50345;51.136;16.886;2023-12-20T09:31:56;2.30;;;1.35;;
6955;SDS011;50345;51.136;16.886;2023-12-20T09:34:22;2.20;;;2.00;;
6955;SDS011;50345;51.136;16.886;2023-12-20T09:36:48;2.50;;;2.30;;
6955;SDS011;50345;51.136;16.886;2023-12-20T09:39:14;1.87;;;1.77;;
6955;SDS011;50345;51.136;16.886;2023-12-20T09:41:44;1.77;;;1.55;;
6955;SDS011;50345;51.136;16.886;2023-12-20T09:44:15;1.48;;;1.35;;
6955;SDS011;50345;51.136;16.886;2023-12-20T09:46:44;8.30;;;2.58;;
6955;SDS011;50345;51.136;16.886;2023-12-20T09:49:14;2.60;;;2.05;;
6955;SDS011;50345;51.136;16.886;2023-12-20T09:51:42;3.60;;;1.92;;
6955;SDS011;50345;51.136;16.886;2023-12-20T09:54:08;2.03;;;1.50;;
6955;SDS011;50345;51.136;16.886;2023-12-20T09:56:35;1.73;;;1.38;;
6955;SDS011;50345;51.136;16.886;2023-12-20T09:59:01;1.23;;;1.10;;
6955;SDS011;50345;51.136;16.886;2023-12-20T10:01:27;2.23;;;1.33;;
6955;SDS011;50345;51.136;16.886;2023-12-20T10:03:54;2.30;;;1.85;;
6955;SDS011;50345;51.136;16.886;2023-12-20T10:06:20;1.50;;;1.40;;
6955;SDS011;50345;51.136;16.886;2023-12-20T10:08:46;4.10;;;1.40;;
6955;SDS011;50345;51.136;16.886;2023-12-20T10:11:12;1.60;;;1.50;;
6955;SDS011;50345;51.136;16.886;2023-12-20T10:13:41;3.27;;;1.70;;
6955;SDS011;50345;51.136;16.886;2023-12-20T10:16:07;2.75;;;1.88;;
6955;SDS011;50345;51.136;16.886;2023-12-20T10:18:33;1.43;;;1.33;;
6955;SDS011;50345;51.136;16.886;2023-12-20T10:21:00;1.73;;;1.43;;
6955;SDS011;50345;51.136;16.886;2023-12-20T10:23:25;1.17;;;1.08;;
6955;SDS011;50345;51.136;16.886;2023-12-20T10:25:55;1.53;;;1.43;;
6955;SDS011;50345;51.136;16.886;2023-12-20T10:28:24;1.85;;;1.75;;
6955;SDS011;50345;51.136;16.886;2023-12-20T10:30:53;3.08;;;2.30;;
6955;SDS011;50345;51.136;16.886;2023-12-20T10:33:24;2.00;;;1.52;;
6955;SDS011;50345;51.136;16.886;2023-12-20T10:35:51;3.13;;;2.25;;
6955;SDS011;50345;51.136;16.886;2023-12-20T10:38:18;4.05;;;1.92;;
6955;SDS011;50345;51.136;16.886;2023-12-20T10:40:45;2.93;;;2.53;;
6955;SDS011;50345;51.136;16.886;2023-12-20T10:43:11;5.15;;;2.78;;
6955;SDS011;50345;51.136;16.886;2023-12-20T10:45:37;1.83;;;1.50;;
6955;SDS011;50345;51.136;16.886;2023-12-20T10:48:02;2.17;;;1.97;;
6955;SDS011;50345;51.136;16.886;2023-12-20T10:50:29;2.80;;;1.65;;
6955;SDS011;50345;51.136;16.886;2023-12-20T10:52:56;2.50;;;1.85;;
6955;SDS011;50345;51.136;16.886;2023-12-20T10:55:25;4.50;;;2.00;;
6955;SDS011;50345;51.136;16.886;2023-12-20T10:57:51;1.80;;;1.70;;
6955;SDS011;50345;51.136;16.886;2023-12-20T11:00:18;2.38;;;1.63;;
6955;SDS011;50345;51.136;16.886;2023-12-20T11:02:46;5.10;;;2.08;;
6955;SDS011;50345;51.136;16.886;2023-12-20T11:08:12;7.13;;;2.10;;
6955;SDS011;50345;51.136;16.886;2023-12-20T11:10:44;2.60;;;2.00;;
6955;SDS011;50345;51.136;16.886;2023-12-20T11:13:32;2.67;;;1.70;;
6955;SDS011;50345;51.136;16.886;2023-12-20T11:16:05;3.92;;;2.08;;
6955;SDS011;50345;51.136;16.886;2023-12-20T11:18:32;2.20;;;1.60;;
6955;SDS011;50345;51.136;16.886;2023-12-20T11:21:01;2.57;;;2.20;;
6955;SDS011;50345;51.136;16.886;2023-12-20T11:23:29;2.22;;;2.00;;
6955;SDS011;50345;51.136;16.886;2023-12-20T11:25:58;3.25;;;1.83;;
6955;SDS011;50345;51.136;16.886;2023-12-20T11:28:24;4.43;;;2.00;;
6955;SDS011;50345;51.136;16.886;2023-12-20T11:33:20;1.85;;;1.70;;
6955;SDS011;50345;51.136;16.886;2023-12-20T11:35:49;2.60;;;1.50;;
6955;SDS011;50345;51.136;16.886;2023-12-20T11:38:15;3.47;;;1.87;;
6955;SDS011;50345;51.136;16.886;2023-12-20T11:40:43;5.00;;;1.93;;
6955;SDS011;50345;51.136;16.886;2023-12-20T11:43:09;4.30;;;1.20;;
6955;SDS011;50345;51.136;16.886;2023-12-20T11:45:35;3.67;;;1.40;;
6955;SDS011;50345;51.136;16.886;2023-12-20T11:48:03;5.00;;;1.97;;
6955;SDS011;50345;51.136;16.886;2023-12-20T11:50:31;2.60;;;1.65;;
6955;SDS011;50345;51.136;16.886;2023-12-20T11:52:56;2.50;;;2.20;;
6955;SDS011;50345;51.136;16.886;2023-12-20T11:55:22;2.33;;;1.70;;
6955;SDS011;50345;51.136;16.886;2023-12-20T11:57:49;7.07;;;2.42;;
6955;SDS011;50345;51.136;16.886;2023-12-20T12:00:16;5.70;;;1.60;;
6955;SDS011;50345;51.136;16.886;2023-12-20T12:02:42;2.08;;;1.40;;
6955;SDS011;50345;51.136;16.886;2023-12-20T12:05:08;3.73;;;2.53;;
6955;SDS011;50345;51.136;16.886;2023-12-20T12:07:34;6.17;;;2.10;;
6955;SDS011;50345;51.136;16.886;2023-12-20T12:10:00;2.63;;;2.13;;
6955;SDS011;50345;51.136;16.886;2023-12-20T12:12:26;2.70;;;1.97;;
6955;SDS011;50345;51.136;16.886;2023-12-20T12:14:52;3.03;;;1.90;;
6955;SDS011;50345;51.136;16.886;2023-12-20T12:17:19;5.72;;;3.08;;
6955;SDS011;50345;51.136;16.886;2023-12-20T12:19:45;4.63;;;2.77;;
6955;SDS011;50345;51.136;16.886;2023-12-20T12:22:14;4.97;;;2.20;;
6955;SDS011;50345;51.136;16.886;2023-12-20T12:24:45;5.07;;;3.83;;
6955;SDS011;50345;51.136;16.886;2023-12-20T12:27:12;8.05;;;2.38;;
6955;SDS011;50345;51.136;16.886;2023-12-20T12:29:38;7.72;;;2.42;;
6955;SDS011;50345;51.136;16.886;2023-12-20T12:32:04;9.40;;;4.63;;
6955;SDS011;50345;51.136;16.886;2023-12-20T12:34:34;3.97;;;2.35;;
6955;SDS011;50345;51.136;16.886;2023-12-20T12:37:01;2.55;;;1.65;;
6955;SDS011;50345;51.136;16.886;2023-12-20T12:39:27;1.52;;;1.20;;
6955;SDS011;50345;51.136;16.886;2023-12-20T12:41:54;2.13;;;1.60;;
6955;SDS011;50345;51.136;16.886;2023-12-20T12:44:20;3.80;;;1.83;;
6955;SDS011;50345;51.136;16.886;2023-12-20T12:46:48;3.60;;;1.77;;
6955;SDS011;50345;51.136;16.886;2023-12-20T12:49:18;2.78;;;2.00;;
6955;SDS011;50345;51.136;16.886;2023-12-20T12:51:47;2.42;;;1.60;;
6955;SDS011;50345;51.136;16.886;2023-12-20T12:54:13;5.00;;;1.65;;
6955;SDS011;50345;51.136;16.886;2023-12-20T12:56:41;3.67;;;1.80;;
6955;SDS011;50345;51.136;16.886;2023-12-20T12:59:07;2.73;;;1.60;;
6955;SDS011;50345;51.136;16.886;2023-12-20T13:01:33;4.93;;;2.40;;
6955;SDS011;50345;51.136;16.886;2023-12-20T13:03:58;3.37;;;1.67;;
6955;SDS011;50345;51.136;16.886;2023-12-20T13:06:26;3.58;;;2.30;;
6955;SDS011;50345;51.136;16.886;2023-12-20T13:08:52;4.13;;;2.53;;
6955;SDS011;50345;51.136;16.886;2023-12-20T13:11:17;4.83;;;1.83;;
6955;SDS011;50345;51.136;16.886;2023-12-20T13:13:43;4.23;;;2.20;;
6955;SDS011;50345;51.136;16.886;2023-12-20T13:16:08;5.63;;;3.23;;
6955;SDS011;50345;51.136;16.886;2023-12-20T13:18:34;5.33;;;2.60;;
6955;SDS011;50345;51.136;16.886;2023-12-20T13:20:59;5.77;;;2.70;;
6955;SDS011;50345;51.136;16.886;2023-12-20T13:23:25;5.37;;;4.00;;
6955;SDS011;50345;51.136;16.886;2023-12-20T13:25:50;13.00;;;6.27;;
6955;SDS011;50345;51.136;16.886;2023-12-20T13:28:16;3.70;;;2.67;;
6955;SDS011;50345;51.136;16.886;2023-12-20T13:30:42;3.77;;;2.10;;
6955;SDS011;50345;51.136;16.886;2023-12-20T13:33:08;6.10;;;2.77;;
6955;SDS011;50345;51.136;16.886;2023-12-20T13:35:35;3.63;;;1.90;;
6955;SDS011;50345;51.136;16.886;2023-12-20T13:38:00;4.10;;;2.03;;
6955;SDS011;50345;51.136;16.886;2023-12-20T13:40:26;3.67;;;2.07;;
6955;SDS011;50345;51.136;16.886;2023-12-20T13:42:51;9.33;;;2.57;;
6955;SDS011;50345;51.136;16.886;2023-12-20T13:45:17;3.30;;;1.90;;
6955;SDS011;50345;51.136;16.886;2023-12-20T13:47:43;3.27;;;1.60;;
6955;SDS011;50345;51.136;16.886;2023-12-20T13:50:09;4.67;;;3.77;;
6955;SDS011;50345;51.136;16.886;2023-12-20T13:52:34;4.83;;;1.80;;
6955;SDS011;50345;51.136;16.886;2023-12-20T13:55:00;3.65;;;1.92;;
6955;SDS011;50345;51.136;16.886;2023-12-20T13:57:26;3.13;;;1.97;;
6955;SDS011;50345;51.136;16.886;2023-12-20T13:59:53;3.15;;;2.00;;
6955;SDS011;50345;51.136;16.886;2023-12-20T14:02:19;5.47;;;2.17;;
6955;SDS011;50345;51.136;16.886;2023-12-20T14:04:45;3.70;;;2.40;;
6955;SDS011;50345;51.136;16.886;2023-12-20T14:07:10;4.90;;;2.60;;
6955;SDS011;50345;51.136;16.886;2023-12-20T14:09:36;3.30;;;2.10;;
6955;SDS011;50345;51.136;16.886;2023-12-20T14:12:01;2.03;;;1.53;;
6955;SDS011;50345;51.136;16.886;2023-12-20T14:14:27;2.73;;;2.00;;
6955;SDS011;50345;51.136;16.886;2023-12-20T14:16:53;3.23;;;1.50;;
6955;SDS011;50345;51.136;16.886;2023-12-20T14:19:18;2.10;;;1.80;;
6955;SDS011;50345;51.136;16.886;2023-12-20T14:21:44;2.60;;;2.10;;
6955;SDS011;50345;51.136;16.886;2023-12-20T14:24:12;5.07;;;2.65;;
6955;SDS011;50345;51.136;16.886;2023-12-20T14:26:39;4.10;;;2.08;;
6955;SDS011;50345;51.136;16.886;2023-12-20T14:29:06;2.92;;;1.90;;
6955;SDS011;50345;51.136;16.886;2023-12-20T14:31:32;3.22;;;2.00;;
6955;SDS011;50345;51.136;16.886;2023-12-20T14:33:58;4.43;;;2.43;;
6955;SDS011;50345;51.136;16.886;2023-12-20T14:36:24;5.03;;;3.05;;
6955;SDS011;50345;51.136;16.886;2023-12-20T14:38:50;2.20;;;1.73;;
6955;SDS011;50345;51.136;16.886;2023-12-20T14:41:15;2.60;;;2.00;;
6955;SDS011;50345;51.136;16.886;2023-12-20T14:43:43;3.60;;;2.10;;